Hovedside
METAR-TAF:

METAR-TAF

Lufthavner :

Jämsä, Finland

Halli lufthavn

breddegrad: 61-51N, lengdegrad: 024-48E, høyde over havet: 143 m

Gjeldene værobservasjon

Denne rapporten ble laget for 1 time og 13 minutter siden, klokken 09:50 UTC
Vind 12 kt fra Vest
Temperatur 3°C
Luftfuktighet 70%
Trykk 1004 hPa
Sikt 10 km eller mer
Brutte skyer i en høyde av 4000 ft
regnbyger i nærheten

METAR: EFHA 270950Z 26012KT 9999 VCSH BKN040 03/M02 Q1004

Tid: 14:03 (11:03 UTC)

Varsel

Denne rapporten ble laget for 2 timer og 28 minutter siden, klokken 08:35 UTC
Varsel gyldig fra 27. klokken 09 UTC til 27. klokken 14 UTC
Vind 12 kt fra Vest-sørvest
Sikt 10 km eller mer
Spredte skyer i en høyde av 1500 ft
Midlertidig
fra 27. klokken 10 UTC til 27. klokken 14 UTC
Sikt: 7000 m
Spredte skyer i en høyde av 3500 ft, Bygeskyer.
lette regnbyger

TAF: EFHA 270835Z 2709/2714 25012KT 9999 SCT015 TEMPO 2710/2714 7000 -SHRA SCT035CB

Værobservasjoner og værvarsel for over 4000 flyplasser (METAR- og TAF-rapporter).

Tilgjengelige stasjoner er representert av de røde og gule prikkene på kartet.

Hold musepekeren over prikken for å se navnet på stasjonen.

Klikk så for å se værobservasjoner og -varsler.

For å forandre kartet kan du klikke på den grønne knappen med svart kryss for å zoome inn, på den grønne knappen med strek for å zoome ut, eller på de grønne pilene for å se tilstøtende kart.


METAR-TAF: